createdAt,value
2019-03-04T00:02:26.842Z,27.73
2019-03-04T00:04:56.891Z,25.55
2019-03-04T00:07:26.020Z,35.83
2019-03-04T00:09:53.755Z,30.45
2019-03-04T00:12:21.684Z,29.70
2019-03-04T00:14:49.491Z,31.77
2019-03-04T00:17:18.637Z,27.20
2019-03-04T00:19:46.463Z,25.80
2019-03-04T00:22:14.366Z,31.73
2019-03-04T00:24:42.175Z,30.15
2019-03-04T00:27:10.085Z,29.32
2019-03-04T00:29:37.927Z,30.10
2019-03-04T00:32:08.209Z,29.63
2019-03-04T00:34:36.181Z,30.62
2019-03-04T00:37:03.954Z,33.05
2019-03-04T00:39:34.738Z,30.50
2019-03-04T00:42:02.612Z,29.80
2019-03-04T00:44:30.467Z,35.73
2019-03-04T00:46:58.341Z,31.10
2019-03-04T00:49:26.177Z,36.80
2019-03-04T00:51:53.900Z,38.85
2019-03-04T00:54:22.696Z,35.68
2019-03-04T00:56:50.641Z,35.28
2019-03-04T00:59:19.674Z,30.20
2019-03-04T01:01:47.607Z,30.32
2019-03-04T01:04:15.399Z,33.42
2019-03-04T01:06:43.321Z,30.57
2019-03-04T01:09:13.383Z,34.20
2019-03-04T01:11:41.066Z,28.70
2019-03-04T01:14:08.910Z,29.98
2019-03-04T01:16:37.275Z,35.75
2019-03-04T01:19:05.336Z,32.75
2019-03-04T01:21:33.058Z,39.65
2019-03-04T01:24:00.863Z,38.80
2019-03-04T01:26:28.663Z,45.75
2019-03-04T01:28:57.791Z,41.70
2019-03-04T01:31:26.887Z,41.33
2019-03-04T01:33:54.578Z,35.75
2019-03-04T01:36:22.562Z,41.05
2019-03-04T01:38:50.502Z,34.55
2019-03-04T01:41:18.286Z,39.85
2019-03-04T01:43:49.124Z,34.23
2019-03-04T01:46:17.046Z,36.65
2019-03-04T01:48:44.861Z,33.30
2019-03-04T01:51:12.532Z,26.20
2019-03-04T01:53:40.242Z,28.60
2019-03-04T01:56:09.477Z,30.92
2019-03-04T01:58:39.602Z,29.60
2019-03-04T02:01:07.281Z,31.82
2019-03-04T02:03:34.967Z,30.68
2019-03-04T02:06:02.700Z,30.12
2019-03-04T02:08:30.625Z,33.08
2019-03-04T02:10:59.677Z,24.43
2019-03-04T02:13:30.518Z,31.40
2019-03-04T02:15:58.702Z,22.42
2019-03-04T02:18:26.740Z,23.55
2019-03-04T02:20:54.915Z,24.12
2019-03-04T02:23:22.776Z,22.13
2019-03-04T02:26:30.256Z,29.00
2019-03-04T02:28:58.224Z,33.33
2019-03-04T02:31:26.124Z,26.07
2019-03-04T02:33:53.853Z,30.60
2019-03-04T02:36:23.399Z,28.85
2019-03-04T02:38:51.352Z,28.83
2019-03-04T02:41:19.190Z,25.40
2019-03-04T02:43:46.915Z,26.35
2019-03-04T02:46:15.067Z,29.65
2019-03-04T02:48:43.136Z,26.00
2019-03-04T02:51:11.049Z,28.73
2019-03-04T02:53:38.991Z,31.42
2019-03-04T02:56:07.115Z,26.35
2019-03-04T02:58:35.065Z,32.35
2019-03-04T03:01:03.509Z,30.50
2019-03-04T03:03:31.234Z,28.60
2019-03-04T03:05:59.091Z,33.02
2019-03-04T03:08:26.870Z,28.77
2019-03-04T03:10:54.835Z,28.35
2019-03-04T03:13:22.931Z,28.12
2019-03-04T03:15:50.663Z,24.35
2019-03-04T03:18:24.879Z,23.62
2019-03-04T03:20:52.942Z,29.77
2019-03-04T03:23:21.044Z,21.50
2019-03-04T03:25:49.195Z,24.67
2019-03-04T03:28:17.381Z,25.52
2019-03-04T03:30:45.117Z,28.77
2019-03-04T03:33:12.995Z,29.60
2019-03-04T03:35:41.544Z,23.73
2019-03-04T03:38:09.358Z,28.50
2019-03-04T03:40:37.546Z,26.02
2019-03-04T03:43:05.476Z,26.50
2019-03-04T03:45:33.556Z,32.08
2019-03-04T03:48:01.496Z,25.27
2019-03-04T03:50:30.530Z,21.35
2019-03-04T03:52:58.334Z,24.77
2019-03-04T03:55:27.580Z,26.02
2019-03-04T03:57:56.499Z,22.75
2019-03-04T04:00:25.069Z,29.80
2019-03-04T04:02:53.218Z,30.17
2019-03-04T04:05:20.929Z,22.95
2019-03-04T04:07:48.871Z,24.65
2019-03-04T04:10:17.744Z,25.02
2019-03-04T04:12:47.906Z,21.30
2019-03-04T04:15:16.961Z,25.62
2019-03-04T04:17:45.246Z,28.80
2019-03-04T04:20:13.258Z,24.85
2019-03-04T04:22:45.474Z,23.85
2019-03-04T04:25:14.105Z,24.35
2019-03-04T04:27:42.107Z,28.60
2019-03-04T04:30:10.858Z,24.92
2019-03-04T04:32:39.204Z,28.05
2019-03-04T04:35:07.394Z,33.53
2019-03-04T04:37:40.041Z,26.00
2019-03-04T04:40:08.071Z,28.67
2019-03-04T04:42:35.831Z,28.47
2019-03-04T04:45:04.007Z,32.23
2019-03-04T04:47:34.107Z,38.80
2019-03-04T04:50:02.389Z,31.00
2019-03-04T04:52:31.641Z,32.48
2019-03-04T04:55:00.996Z,31.82
2019-03-04T04:57:28.718Z,28.92
2019-03-04T04:59:56.570Z,29.75
2019-03-04T05:02:24.280Z,32.90
2019-03-04T05:04:52.314Z,34.73
2019-03-04T05:07:20.896Z,40.10
2019-03-04T05:09:48.853Z,42.62
2019-03-04T05:12:22.419Z,44.48
2019-03-04T05:14:53.611Z,49.60
2019-03-04T05:17:21.412Z,44.75
2019-03-04T05:19:49.331Z,46.45
2019-03-04T05:22:17.065Z,42.80
2019-03-04T05:24:44.740Z,49.40
2019-03-04T05:27:13.804Z,47.50
2019-03-04T05:29:41.548Z,48.90
2019-03-04T05:32:09.477Z,40.43
2019-03-04T05:34:37.195Z,47.25
2019-03-04T05:37:05.745Z,46.60
2019-03-04T05:39:34.683Z,40.58
2019-03-04T05:42:02.921Z,46.88
2019-03-04T05:44:30.592Z,44.53
2019-03-04T05:46:58.688Z,38.38
2019-03-04T05:49:26.672Z,47.13
2019-03-04T05:51:54.414Z,52.73
2019-03-04T05:54:22.103Z,41.50
2019-03-04T05:56:50.146Z,44.95
2019-03-04T05:59:19.941Z,49.27
2019-03-04T06:02:08.062Z,50.85
2019-03-04T06:04:36.658Z,51.45
2019-03-04T06:07:07.781Z,47.45
2019-03-04T06:09:37.009Z,48.95
2019-03-04T06:12:10.838Z,46.60
2019-03-04T06:14:38.539Z,46.98
2019-03-04T06:17:06.283Z,48.02
2019-03-04T06:19:34.313Z,44.40
2019-03-04T06:22:02.475Z,51.85
2019-03-04T06:24:30.465Z,53.73
2019-03-04T06:26:58.525Z,52.55
2019-03-04T06:29:26.451Z,53.78
2019-03-04T06:31:55.771Z,56.95
2019-03-04T06:34:24.149Z,57.75
2019-03-04T06:36:53.088Z,45.92
2019-03-04T06:39:21.192Z,49.88
2019-03-04T06:41:49.044Z,48.68
2019-03-04T06:44:16.847Z,55.20
2019-03-04T06:46:45.267Z,48.78
2019-03-04T06:49:15.139Z,49.13
2019-03-04T06:51:44.788Z,43.60
2019-03-04T06:54:18.912Z,42.78
2019-03-04T06:57:00.015Z,46.02
2019-03-04T06:59:51.424Z,39.33
2019-03-04T07:02:22.939Z,38.42
2019-03-04T07:05:34.924Z,40.08
2019-03-04T07:08:02.565Z,33.85
2019-03-04T07:10:30.622Z,36.55
2019-03-04T07:12:58.303Z,35.70
2019-03-04T07:15:26.402Z,33.10
2019-03-04T07:17:54.156Z,33.33
2019-03-04T07:20:22.136Z,32.78
2019-03-04T07:22:51.128Z,29.85
2019-03-04T07:25:19.901Z,30.40
2019-03-04T07:27:48.958Z,31.70
2019-03-04T07:30:17.143Z,30.17
2019-03-04T07:32:45.890Z,30.93
2019-03-04T07:35:13.925Z,31.07
2019-03-04T07:37:43.370Z,32.73
2019-03-04T07:40:12.474Z,29.87
2019-03-04T07:42:42.415Z,31.07
2019-03-04T07:45:11.327Z,29.57
2019-03-04T07:47:39.431Z,31.90
2019-03-04T07:50:07.697Z,28.87
2019-03-04T07:52:35.822Z,34.10
2019-03-04T07:55:04.064Z,32.07
2019-03-04T07:57:31.993Z,29.97
2019-03-04T08:00:00.376Z,32.80
2019-03-04T08:02:29.419Z,34.50
2019-03-04T08:04:57.275Z,37.03
2019-03-04T08:07:47.127Z,35.93
2019-03-04T08:10:30.282Z,38.57
2019-03-04T08:13:17.307Z,37.87
2019-03-04T08:15:47.622Z,39.37
2019-03-04T08:18:15.709Z,35.43
2019-03-04T08:20:44.309Z,36.57
2019-03-04T08:23:12.290Z,38.93
2019-03-04T08:25:40.493Z,37.00
2019-03-04T08:28:10.302Z,33.77
2019-03-04T08:30:38.876Z,38.77
2019-03-04T08:33:06.885Z,33.90
2019-03-04T08:35:34.795Z,39.67
2019-03-04T08:38:03.994Z,37.60
2019-03-04T08:40:36.237Z,37.97
2019-03-04T08:43:04.076Z,35.07
2019-03-04T08:45:31.961Z,35.40
2019-03-04T08:48:00.488Z,35.17
2019-03-04T08:50:28.556Z,36.73
2019-03-04T08:52:56.283Z,33.53
2019-03-04T08:55:25.350Z,36.60
2019-03-04T08:57:59.407Z,34.30
2019-03-04T09:00:29.397Z,35.37
2019-03-04T09:02:57.333Z,35.23
2019-03-04T09:05:25.637Z,33.47
2019-03-04T09:07:53.851Z,35.13
2019-03-04T09:10:26.767Z,33.00
2019-03-04T09:12:54.893Z,29.73
2019-03-04T09:15:22.993Z,31.63
2019-03-04T09:17:52.697Z,32.53
2019-03-04T09:20:22.077Z,30.77
2019-03-04T09:22:50.115Z,31.30
2019-03-04T09:25:30.111Z,30.20
2019-03-04T09:27:51.751Z,30.13
2019-03-04T09:30:19.884Z,28.90
2019-03-04T09:32:48.186Z,30.83
2019-03-04T09:35:16.496Z,28.83
2019-03-04T09:37:44.650Z,29.20
2019-03-04T09:40:15.231Z,29.17
2019-03-04T09:42:46.680Z,28.57
2019-03-04T09:45:15.011Z,28.67
2019-03-04T09:47:43.551Z,27.83
2019-03-04T09:50:14.264Z,27.40
2019-03-04T09:52:42.957Z,27.37
2019-03-04T09:55:12.625Z,26.60
2019-03-04T09:57:40.559Z,24.50
2019-03-04T10:00:58.654Z,26.67
2019-03-04T10:03:47.986Z,24.03
2019-03-04T10:06:40.320Z,22.73
2019-03-04T10:09:44.408Z,23.40
2019-03-04T10:12:39.220Z,22.80
2019-03-04T10:15:20.690Z,25.93
2019-03-04T10:18:15.560Z,22.80
2019-03-04T10:21:30.810Z,13.27
2019-03-04T10:24:52.567Z,11.07
2019-03-04T10:27:59.503Z,12.13
2019-03-04T10:31:33.482Z,11.90
2019-03-04T10:34:51.587Z,16.10
2019-03-04T10:37:58.100Z,13.53
2019-03-04T10:40:46.112Z,4.67
2019-03-04T10:43:52.980Z,3.23
2019-03-04T10:46:51.066Z,3.50
2019-03-04T10:49:18.831Z,4.20
2019-03-04T10:51:46.720Z,3.33
2019-03-04T10:54:14.578Z,3.90
2019-03-04T10:56:44.400Z,5.90
2019-03-04T10:59:12.286Z,3.57
2019-03-04T11:01:47.340Z,2.27
2019-03-04T11:04:15.540Z,3.00
2019-03-04T11:06:49.280Z,2.67
2019-03-04T11:09:17.335Z,3.17
2019-03-04T11:11:51.996Z,2.97
2019-03-04T11:14:19.927Z,6.03
2019-03-04T11:16:47.836Z,3.00
2019-03-04T11:19:16.869Z,2.60
2019-03-04T11:21:45.293Z,2.57
2019-03-04T11:24:15.042Z,2.10
2019-03-04T11:26:43.104Z,2.70
2019-03-04T11:29:13.272Z,2.30
2019-03-04T11:31:42.811Z,3.47
2019-03-04T11:34:10.630Z,3.13
2019-03-04T11:36:40.801Z,4.00
2019-03-04T11:39:46.027Z,2.30
2019-03-04T11:42:14.251Z,3.00
2019-03-04T11:44:43.084Z,3.43
2019-03-04T11:47:12.338Z,2.47
2019-03-04T11:49:40.454Z,6.43
2019-03-04T11:52:08.350Z,8.67
2019-03-04T11:54:36.065Z,9.30
2019-03-04T11:57:04.186Z,3.63
2019-03-04T11:59:32.944Z,2.73
2019-03-04T12:02:01.184Z,3.10
2019-03-04T12:04:29.255Z,3.87
2019-03-04T12:06:57.244Z,3.10
2019-03-04T12:09:25.023Z,5.60
2019-03-04T12:11:55.425Z,4.90
2019-03-04T12:14:23.287Z,3.73
2019-03-04T12:16:52.747Z,3.57
2019-03-04T12:19:20.669Z,3.10
2019-03-04T12:21:50.570Z,3.47
2019-03-04T12:24:19.584Z,3.67
2019-03-04T12:26:47.522Z,5.40
2019-03-04T12:29:16.534Z,3.70
2019-03-04T12:32:07.324Z,3.43
2019-03-04T12:34:36.779Z,3.80
2019-03-04T12:37:08.567Z,3.43
2019-03-04T12:39:39.300Z,4.60
2019-03-04T12:42:07.416Z,4.63
2019-03-04T12:44:36.585Z,3.57
2019-03-04T12:47:04.702Z,3.30
2019-03-04T12:49:32.778Z,4.33
2019-03-04T12:52:00.517Z,4.33
2019-03-04T12:54:28.295Z,6.00
2019-03-04T12:56:59.410Z,6.30
2019-03-04T12:59:27.459Z,4.17
2019-03-04T13:01:55.667Z,4.47
2019-03-04T13:04:23.559Z,4.87
2019-03-04T13:06:51.518Z,4.40
2019-03-04T13:09:19.331Z,4.20
2019-03-04T13:11:47.497Z,5.13
2019-03-04T13:14:15.195Z,5.23
2019-03-04T13:16:43.282Z,4.50
2019-03-04T13:19:11.274Z,15.87
2019-03-04T13:21:39.590Z,5.70
2019-03-04T13:24:07.413Z,12.93
2019-03-04T13:26:35.256Z,6.20
2019-03-04T13:29:04.944Z,4.43
2019-03-04T13:31:32.964Z,4.93
2019-03-04T13:34:00.993Z,7.10
2019-03-04T13:36:28.790Z,6.70
2019-03-04T13:38:56.510Z,5.87
2019-03-04T13:41:24.865Z,6.20
2019-03-04T13:43:52.652Z,6.03
2019-03-04T13:46:20.669Z,4.73
2019-03-04T13:48:55.724Z,7.00
2019-03-04T13:51:24.941Z,5.67
2019-03-04T13:53:52.791Z,4.90
2019-03-04T13:56:20.704Z,3.87
2019-03-04T13:58:48.495Z,7.28
2019-03-04T14:01:16.519Z,4.73
2019-03-04T14:03:44.643Z,4.75
2019-03-04T14:06:12.676Z,4.80
2019-03-04T14:08:40.839Z,4.62
2019-03-04T14:11:08.782Z,5.15
2019-03-04T14:13:36.985Z,4.10
2019-03-04T14:16:05.310Z,7.30
2019-03-04T14:18:33.065Z,4.60
2019-03-04T14:21:01.789Z,5.25
2019-03-04T14:23:30.274Z,4.83
2019-03-04T14:25:58.786Z,7.45
2019-03-04T14:28:28.743Z,5.03
2019-03-04T14:30:56.527Z,5.50
2019-03-04T14:33:25.544Z,5.60
2019-03-04T14:35:54.445Z,5.28
2019-03-04T14:38:22.815Z,6.95
2019-03-04T14:40:51.753Z,8.95
2019-03-04T14:43:20.818Z,5.03
2019-03-04T14:45:50.002Z,6.40
2019-03-04T14:48:18.191Z,9.85
2019-03-04T14:50:47.368Z,5.00
2019-03-04T14:53:16.443Z,5.25
2019-03-04T14:55:44.154Z,4.70
2019-03-04T14:58:12.288Z,5.22
2019-03-04T15:00:42.595Z,7.78
2019-03-04T15:03:19.874Z,8.88
2019-03-04T15:05:41.037Z,5.75
2019-03-04T15:08:09.389Z,7.20
2019-03-04T15:10:38.836Z,7.53
2019-03-04T15:13:12.020Z,6.17
2019-03-04T15:15:39.836Z,9.38
2019-03-04T15:18:07.788Z,6.60
2019-03-04T15:20:37.575Z,6.80
2019-03-04T15:23:05.480Z,7.37
2019-03-04T15:25:40.543Z,6.65
2019-03-04T15:28:16.515Z,7.72
2019-03-04T15:30:45.538Z,6.80
2019-03-04T15:33:18.223Z,6.03
2019-03-04T15:35:43.733Z,7.80
2019-03-04T15:38:11.503Z,8.10
2019-03-04T15:40:39.714Z,7.00
2019-03-04T15:43:07.873Z,7.37
2019-03-04T15:45:43.183Z,11.88
2019-03-04T15:48:12.496Z,13.68
2019-03-04T15:50:44.487Z,9.48
2019-03-04T15:53:13.081Z,11.22
2019-03-04T15:55:43.703Z,10.88
2019-03-04T15:58:11.686Z,8.90
2019-03-04T16:00:44.884Z,7.67
2019-03-04T16:03:13.086Z,7.58
2019-03-04T16:05:42.026Z,9.08
2019-03-04T16:08:10.115Z,16.90
2019-03-04T16:10:38.124Z,11.48
2019-03-04T16:13:07.121Z,9.15
2019-03-04T16:15:36.714Z,8.53
2019-03-04T16:18:04.872Z,7.80
2019-03-04T16:20:32.868Z,9.45
2019-03-04T16:23:01.104Z,9.68
2019-03-04T16:25:28.815Z,11.08
2019-03-04T16:28:05.380Z,10.60
2019-03-04T16:30:33.373Z,12.65
2019-03-04T16:33:01.564Z,11.20
2019-03-04T16:35:29.746Z,11.22
2019-03-04T16:37:57.604Z,13.15
2019-03-04T16:40:25.710Z,12.82
2019-03-04T16:42:53.711Z,12.80
2019-03-04T16:45:21.698Z,11.97
2019-03-04T16:47:50.178Z,11.95
2019-03-04T16:50:18.473Z,12.90
2019-03-04T16:52:48.123Z,13.43
2019-03-04T16:55:16.022Z,18.55
2019-03-04T16:57:43.966Z,13.78
2019-03-04T17:00:15.095Z,14.70
2019-03-04T17:02:43.411Z,14.43
2019-03-04T17:05:12.399Z,16.07
2019-03-04T17:07:40.172Z,25.68
2019-03-04T17:10:09.880Z,27.07
2019-03-04T17:12:37.971Z,18.40
2019-03-04T17:15:10.430Z,24.40
2019-03-04T17:17:38.555Z,18.30
2019-03-04T17:20:08.563Z,20.70
2019-03-04T17:22:37.455Z,19.90
2019-03-04T17:25:06.648Z,20.48
2019-03-04T17:27:35.832Z,17.02
2019-03-04T17:30:07.881Z,16.32
2019-03-04T17:32:36.079Z,13.95
2019-03-04T17:35:04.872Z,13.10
2019-03-04T17:37:33.003Z,13.62
2019-03-04T17:40:00.695Z,8.75
2019-03-04T17:42:29.038Z,11.63
2019-03-04T17:44:57.227Z,13.08
2019-03-04T17:47:25.400Z,15.98
2019-03-04T17:49:53.314Z,13.72
2019-03-04T17:52:22.951Z,10.80
2019-03-04T17:54:51.048Z,14.85
2019-03-04T17:57:19.151Z,10.18
2019-03-04T17:59:50.855Z,13.05
2019-03-04T18:02:19.372Z,11.85
2019-03-04T18:04:47.330Z,11.12
2019-03-04T18:07:15.683Z,20.92
2019-03-04T18:09:44.620Z,12.73
2019-03-04T18:12:12.597Z,12.07
2019-03-04T18:14:40.422Z,16.20
2019-03-04T18:17:08.708Z,14.73
2019-03-04T18:19:36.678Z,18.27
2019-03-04T18:22:04.964Z,13.80
2019-03-04T18:24:32.830Z,10.40
2019-03-04T18:27:16.891Z,14.85
2019-03-04T18:30:20.867Z,17.50
2019-03-04T18:33:19.062Z,10.70
2019-03-04T18:36:27.424Z,12.65
2019-03-04T18:39:21.518Z,15.58
2019-03-04T18:42:31.612Z,11.33
2019-03-04T18:45:37.712Z,12.63
2019-03-04T18:48:37.479Z,12.30
2019-03-04T18:51:05.267Z,10.32
2019-03-04T18:53:33.052Z,9.05
2019-03-04T18:56:01.158Z,11.38
2019-03-04T18:58:29.926Z,9.93
2019-03-04T19:00:58.357Z,10.53
2019-03-04T19:03:26.460Z,12.58
2019-03-04T19:05:54.652Z,8.30
2019-03-04T19:08:22.742Z,9.10
2019-03-04T19:10:50.646Z,9.63
2019-03-04T19:13:22.025Z,9.33
2019-03-04T19:15:50.880Z,7.92
2019-03-04T19:18:22.229Z,13.68
2019-03-04T19:20:50.328Z,8.60
2019-03-04T19:23:20.036Z,11.50
2019-03-04T19:25:48.120Z,10.45
2019-03-04T19:28:18.907Z,8.33
2019-03-04T19:30:47.959Z,9.78
2019-03-04T19:33:17.092Z,8.98
2019-03-04T19:35:45.187Z,9.70
2019-03-04T19:38:17.254Z,9.45
2019-03-04T19:40:46.274Z,10.05
2019-03-04T19:43:15.132Z,11.70
2019-03-04T19:45:45.750Z,10.13
2019-03-04T19:48:13.611Z,14.80
2019-03-04T19:50:43.182Z,39.20
2019-03-04T19:53:15.907Z,29.25
2019-03-04T19:55:44.990Z,28.02
2019-03-04T19:58:14.206Z,27.50
2019-03-04T20:00:42.442Z,27.95
2019-03-04T20:03:12.433Z,24.55
2019-03-04T20:05:41.171Z,25.95
2019-03-04T20:08:09.263Z,24.27
2019-03-04T20:10:37.447Z,22.40
2019-03-04T20:13:05.582Z,26.60
2019-03-04T20:15:33.736Z,26.05
2019-03-04T20:18:03.124Z,39.60
2019-03-04T20:20:32.669Z,31.35
2019-03-04T20:23:00.713Z,43.78
2019-03-04T20:25:29.031Z,49.15
2019-03-04T20:27:59.429Z,59.65
2019-03-04T20:30:27.923Z,66.65
2019-03-04T20:32:55.804Z,65.45
2019-03-04T20:35:24.119Z,77.70
2019-03-04T20:37:53.029Z,68.52
2019-03-04T20:40:20.842Z,66.42
2019-03-04T20:42:50.074Z,64.62
2019-03-04T20:45:19.215Z,55.05
2019-03-04T20:47:51.319Z,59.42
2019-03-04T20:50:20.865Z,65.35
2019-03-04T20:52:49.395Z,57.95
2019-03-04T20:55:17.724Z,45.78
2019-03-04T20:57:46.058Z,51.90
2019-03-04T21:00:18.828Z,49.90
2019-03-04T21:02:47.118Z,40.33
2019-03-04T21:05:15.390Z,44.33
2019-03-04T21:07:44.121Z,49.08
2019-03-04T21:10:12.427Z,43.60
2019-03-04T21:12:40.991Z,46.25
2019-03-04T21:15:10.217Z,49.05
2019-03-04T21:17:38.232Z,46.13
2019-03-04T21:20:07.638Z,47.13
2019-03-04T21:22:37.531Z,44.50
2019-03-04T21:25:08.820Z,42.25
2019-03-04T21:27:36.671Z,49.15
2019-03-04T21:30:55.071Z,45.80
2019-03-04T21:33:46.034Z,37.95
2019-03-04T21:36:29.681Z,41.63
2019-03-04T21:38:58.418Z,42.13
2019-03-04T21:42:05.988Z,40.00
2019-03-04T21:45:12.701Z,37.13
2019-03-04T21:47:45.941Z,39.20
2019-03-04T21:50:17.651Z,39.73
2019-03-04T21:53:08.535Z,37.90
2019-03-04T21:56:12.485Z,36.90
2019-03-04T21:58:40.267Z,37.00
2019-03-04T22:01:17.778Z,35.60
2019-03-04T22:03:46.243Z,34.03
2019-03-04T22:06:14.297Z,38.23
2019-03-04T22:08:42.275Z,28.17
2019-03-04T22:11:10.213Z,23.57
2019-03-04T22:13:38.278Z,32.08
2019-03-04T22:16:06.565Z,32.33
2019-03-04T22:18:34.521Z,31.52
2019-03-04T22:21:03.061Z,31.00
2019-03-04T22:23:34.561Z,32.90
2019-03-04T22:26:02.474Z,35.73
2019-03-04T22:28:31.937Z,33.78
2019-03-04T22:30:59.825Z,31.75
2019-03-04T22:33:27.634Z,34.18
2019-03-04T22:35:55.725Z,28.15
2019-03-04T22:38:23.764Z,27.70
2019-03-04T22:40:51.642Z,27.10
2019-03-04T22:43:19.869Z,30.92
2019-03-04T22:45:47.816Z,30.50
2019-03-04T22:48:18.422Z,30.65
2019-03-04T22:50:46.481Z,26.82
2019-03-04T22:53:15.806Z,28.25
2019-03-04T22:55:43.868Z,28.87
2019-03-04T22:58:11.738Z,29.50
2019-03-04T23:01:33.438Z,34.70
2019-03-04T23:04:26.379Z,31.25
2019-03-04T23:07:16.651Z,32.88
2019-03-04T23:09:59.993Z,30.08
2019-03-04T23:12:42.021Z,34.30
2019-03-04T23:15:13.930Z,31.80
2019-03-04T23:17:41.858Z,32.67
2019-03-04T23:20:09.753Z,30.48
2019-03-04T23:22:37.598Z,27.48
2019-03-04T23:25:06.776Z,27.85
2019-03-04T23:27:34.553Z,28.10
2019-03-04T23:30:02.389Z,28.25
2019-03-04T23:32:30.287Z,31.27
2019-03-04T23:34:58.070Z,25.92
2019-03-04T23:37:26.010Z,31.93
2019-03-04T23:39:53.856Z,30.68
2019-03-04T23:42:21.762Z,30.17
2019-03-04T23:44:49.546Z,36.10
2019-03-04T23:47:17.777Z,33.25
2019-03-04T23:49:45.856Z,25.48
2019-03-04T23:52:13.558Z,34.95
2019-03-04T23:54:42.655Z,30.55
2019-03-04T23:57:10.582Z,26.23
2019-03-04T23:59:38.431Z,25.62
